createdAt,value
2023-04-07T00:00:48.193Z,52.95
2023-04-07T00:03:14.869Z,55.95
2023-04-07T00:05:41.578Z,55.70
2023-04-07T00:08:08.290Z,53.47
2023-04-07T00:10:35.353Z,49.78
2023-04-07T00:13:02.104Z,50.70
2023-04-07T00:15:28.790Z,59.25
2023-04-07T00:17:56.254Z,61.63
2023-04-07T00:20:23.231Z,51.67
2023-04-07T00:22:49.838Z,53.90
2023-04-07T00:25:16.472Z,50.95
2023-04-07T00:27:43.116Z,56.17
2023-04-07T00:30:09.978Z,56.58
2023-04-07T00:32:36.890Z,48.55
2023-04-07T00:35:03.539Z,51.85
2023-04-07T00:37:30.411Z,50.60
2023-04-07T00:39:58.069Z,45.63
2023-04-07T00:42:24.802Z,49.65
2023-04-07T00:44:51.487Z,52.58
2023-04-07T00:47:18.209Z,57.90
2023-04-07T00:49:44.793Z,52.00
2023-04-07T00:52:12.188Z,53.38
2023-04-07T00:54:41.734Z,53.72
2023-04-07T00:57:09.208Z,58.45
2023-04-07T00:59:37.132Z,51.92
2023-04-07T01:02:11.371Z,47.45
2023-04-07T01:05:05.848Z,52.00
2023-04-07T01:07:58.364Z,49.45
2023-04-07T01:10:41.805Z,46.47
2023-04-07T01:13:36.270Z,55.20
2023-04-07T01:16:24.104Z,47.10
2023-04-07T01:18:55.923Z,51.80
2023-04-07T01:21:27.229Z,57.03
2023-04-07T01:24:12.687Z,52.73
2023-04-07T01:26:40.467Z,47.30
2023-04-07T01:29:32.420Z,48.13
2023-04-07T01:32:02.194Z,47.47
2023-04-07T01:34:31.521Z,55.78
2023-04-07T01:37:01.602Z,43.58
2023-04-07T01:39:28.892Z,57.33
2023-04-07T01:41:57.607Z,49.75
2023-04-07T01:44:26.101Z,53.20
2023-04-07T01:46:54.038Z,53.22
2023-04-07T01:49:21.356Z,53.22
2023-04-07T01:51:50.646Z,50.63
2023-04-07T01:54:18.601Z,54.88
2023-04-07T01:56:45.945Z,52.97
2023-04-07T01:59:13.125Z,55.05
2023-04-07T02:01:40.614Z,42.50
2023-04-07T02:04:25.813Z,59.08
2023-04-07T02:06:57.540Z,51.97
2023-04-07T02:09:33.498Z,59.42
2023-04-07T02:12:02.234Z,61.95
2023-04-07T02:14:33.923Z,54.28
2023-04-07T02:17:06.108Z,65.55
2023-04-07T02:19:35.937Z,57.78
2023-04-07T02:22:06.973Z,61.35
2023-04-07T02:24:33.665Z,60.55
2023-04-07T02:27:02.107Z,55.08
2023-04-07T02:29:28.944Z,54.53
2023-04-07T02:31:56.559Z,53.83
2023-04-07T02:34:23.281Z,55.10
2023-04-07T02:36:50.106Z,55.30
2023-04-07T02:39:16.811Z,51.15
2023-04-07T02:41:43.419Z,52.00
2023-04-07T02:44:10.194Z,52.80
2023-04-07T02:46:36.809Z,50.08
2023-04-07T02:49:03.428Z,53.83
2023-04-07T02:51:31.321Z,49.90
2023-04-07T02:53:58.167Z,50.25
2023-04-07T02:56:24.823Z,58.50
2023-04-07T02:58:51.428Z,59.95
2023-04-07T03:01:19.244Z,45.45
2023-04-07T03:03:47.722Z,53.47
2023-04-07T03:06:18.866Z,104.28
2023-04-07T03:08:57.424Z,55.95
2023-04-07T03:11:24.194Z,56.88
2023-04-07T03:13:51.375Z,47.25
2023-04-07T03:16:18.444Z,46.03
2023-04-07T03:19:14.236Z,52.83
2023-04-07T03:21:44.497Z,50.55
2023-04-07T03:24:11.396Z,40.92
2023-04-07T03:26:38.465Z,50.60
2023-04-07T03:29:10.708Z,51.22
2023-04-07T03:31:39.638Z,39.38
2023-04-07T03:34:06.362Z,40.40
2023-04-07T03:36:33.012Z,50.72
2023-04-07T03:39:03.802Z,41.50
2023-04-07T03:41:30.879Z,50.67
2023-04-07T03:43:57.775Z,51.55
2023-04-07T03:46:27.062Z,42.30
2023-04-07T03:48:54.133Z,49.30
2023-04-07T03:51:21.994Z,52.53
2023-04-07T03:53:53.532Z,50.43
2023-04-07T03:56:32.013Z,45.20
2023-04-07T03:58:59.272Z,55.30
2023-04-07T04:01:33.350Z,53.20
2023-04-07T04:04:07.440Z,56.47
2023-04-07T04:06:34.878Z,50.33
2023-04-07T04:09:10.946Z,47.08
2023-04-07T04:11:44.225Z,47.78
2023-04-07T04:14:11.078Z,50.05
2023-04-07T04:16:37.804Z,43.45
2023-04-07T04:19:12.973Z,49.78
2023-04-07T04:21:39.737Z,50.58
2023-04-07T04:24:07.578Z,39.85
2023-04-07T04:26:34.188Z,37.63
2023-04-07T04:29:08.089Z,51.92
2023-04-07T04:31:35.599Z,45.83
2023-04-07T04:34:02.444Z,56.78
2023-04-07T04:36:31.206Z,77.68
2023-04-07T04:39:02.990Z,113.68
2023-04-07T04:41:29.990Z,74.95
2023-04-07T04:43:57.442Z,50.95
2023-04-07T04:46:26.431Z,44.05
2023-04-07T04:48:54.297Z,38.83
2023-04-07T04:51:22.926Z,50.22
2023-04-07T04:53:55.050Z,40.22
2023-04-07T04:56:23.957Z,45.40
2023-04-07T04:58:51.374Z,47.70
2023-04-07T05:01:33.341Z,56.08
2023-04-07T05:04:06.578Z,59.97
2023-04-07T05:06:34.319Z,49.55
2023-04-07T05:09:06.355Z,63.90
2023-04-07T05:11:42.262Z,55.88
2023-04-07T05:14:09.707Z,53.40
2023-04-07T05:16:39.797Z,49.33
2023-04-07T05:19:07.164Z,55.00
2023-04-07T05:21:34.404Z,51.30
2023-04-07T05:24:03.825Z,55.83
2023-04-07T05:26:32.913Z,52.63
2023-04-07T05:29:01.772Z,54.63
2023-04-07T05:31:28.446Z,52.80
2023-04-07T05:33:57.802Z,61.90
2023-04-07T05:36:28.329Z,45.67
2023-04-07T05:38:57.241Z,46.90
2023-04-07T05:41:23.903Z,48.90
2023-04-07T05:43:51.059Z,48.97
2023-04-07T05:46:18.094Z,41.03
2023-04-07T05:48:52.613Z,57.40
2023-04-07T05:51:20.627Z,45.35
2023-04-07T05:53:47.306Z,48.95
2023-04-07T05:56:14.923Z,48.83
2023-04-07T05:58:46.734Z,53.47
2023-04-07T06:01:14.619Z,60.60
2023-04-07T06:03:41.925Z,48.13
2023-04-07T06:06:15.498Z,44.87
2023-04-07T06:11:03.957Z,42.88
2023-04-07T06:13:30.666Z,159.02
2023-04-07T06:15:57.267Z,49.35
2023-04-07T06:18:26.237Z,44.00
2023-04-07T06:20:52.827Z,52.58
2023-04-07T06:23:19.473Z,47.20
2023-04-07T06:25:46.381Z,54.28
2023-04-07T06:28:13.050Z,43.03
2023-04-07T06:30:40.987Z,49.53
2023-04-07T06:33:10.828Z,57.70
2023-04-07T06:35:38.854Z,48.08
2023-04-07T06:38:07.427Z,55.17
2023-04-07T06:40:34.036Z,50.00
2023-04-07T06:43:00.751Z,51.45
2023-04-07T06:45:40.512Z,56.05
2023-04-07T06:48:07.401Z,53.08
2023-04-07T06:50:33.963Z,52.58
2023-04-07T06:53:00.557Z,50.97
2023-04-07T06:55:27.283Z,46.80
2023-04-07T06:57:53.950Z,70.28
2023-04-07T07:00:20.685Z,58.75
2023-04-07T07:02:47.494Z,46.80
2023-04-07T07:05:14.139Z,49.97
2023-04-07T07:07:40.771Z,45.70
2023-04-07T07:10:10.714Z,46.42
2023-04-07T07:12:37.495Z,45.78
2023-04-07T07:15:04.383Z,46.92
2023-04-07T07:17:31.106Z,47.30
2023-04-07T07:19:57.633Z,48.30
2023-04-07T07:22:24.377Z,50.33
2023-04-07T07:24:51.130Z,47.03
2023-04-07T07:27:17.749Z,48.70
2023-04-07T07:29:44.283Z,50.35
2023-04-07T07:32:10.958Z,44.58
2023-04-07T07:34:37.484Z,50.83
2023-04-07T07:37:04.174Z,55.40
2023-04-07T07:39:30.768Z,61.90
2023-04-07T07:41:57.400Z,51.28
2023-04-07T07:44:23.941Z,48.25
2023-04-07T07:46:51.350Z,48.92
2023-04-07T07:49:18.029Z,52.95
2023-04-07T07:51:46.610Z,58.75
2023-04-07T07:54:13.553Z,58.35
2023-04-07T07:56:40.409Z,55.55
2023-04-07T07:59:07.011Z,57.40
2023-04-07T08:01:33.837Z,57.30
2023-04-07T08:04:00.711Z,54.08
2023-04-07T08:06:29.184Z,60.63
2023-04-07T08:08:56.005Z,52.97
2023-04-07T08:11:23.143Z,53.53
2023-04-07T08:13:49.913Z,59.40
2023-04-07T08:16:16.879Z,64.63
2023-04-07T08:18:43.471Z,49.53
2023-04-07T08:21:10.086Z,62.08
2023-04-07T08:23:36.814Z,49.80
2023-04-07T08:26:03.456Z,62.35
2023-04-07T08:28:32.593Z,52.97
2023-04-07T08:30:59.223Z,60.08
2023-04-07T08:33:26.450Z,66.38
2023-04-07T08:35:53.088Z,69.03
2023-04-07T08:38:19.651Z,69.82
2023-04-07T08:40:47.603Z,76.05
2023-04-07T08:43:14.731Z,65.55
2023-04-07T08:45:42.502Z,62.72
2023-04-07T08:48:17.703Z,61.97
2023-04-07T08:50:46.229Z,72.95
2023-04-07T08:53:14.687Z,70.10
2023-04-07T08:55:41.965Z,65.70
2023-04-07T08:58:13.672Z,67.38
2023-04-07T09:00:42.838Z,66.25
2023-04-07T09:03:11.847Z,70.47
2023-04-07T09:05:39.378Z,78.57
2023-04-07T09:08:06.852Z,70.68
2023-04-07T09:10:33.549Z,72.80
2023-04-07T09:13:01.449Z,72.78
2023-04-07T09:15:32.209Z,87.50
2023-04-07T09:17:59.525Z,83.60
2023-04-07T09:20:27.559Z,64.80
2023-04-07T09:22:54.148Z,85.50
2023-04-07T09:25:23.814Z,82.47
2023-04-07T09:27:58.823Z,90.07
2023-04-07T09:30:26.344Z,86.78
2023-04-07T09:32:53.153Z,74.05
2023-04-07T09:35:24.126Z,69.90
2023-04-07T09:38:08.547Z,64.03
2023-04-07T09:40:36.677Z,66.40
2023-04-07T09:43:05.572Z,57.72
2023-04-07T09:45:36.220Z,85.18
2023-04-07T09:48:06.752Z,74.93
2023-04-07T09:50:35.804Z,75.85
2023-04-07T09:53:03.403Z,79.57
2023-04-07T09:55:30.576Z,73.97
2023-04-07T09:57:57.638Z,75.72
2023-04-07T10:00:25.095Z,62.80
2023-04-07T10:02:53.199Z,70.47
2023-04-07T10:05:23.057Z,55.33
2023-04-07T10:07:50.005Z,69.68
2023-04-07T10:10:16.721Z,55.13
2023-04-07T10:12:44.380Z,65.82
2023-04-07T10:17:33.545Z,62.38
2023-04-07T10:20:02.048Z,56.53
2023-04-07T10:22:29.684Z,56.20
2023-04-07T10:25:05.404Z,59.70
2023-04-07T10:27:37.045Z,55.70
2023-04-07T10:30:07.229Z,63.53
2023-04-07T10:32:47.699Z,60.28
2023-04-07T10:35:14.374Z,60.40
2023-04-07T10:37:41.102Z,64.18
2023-04-07T10:40:20.294Z,55.33
2023-04-07T10:42:47.767Z,54.00
2023-04-07T10:45:14.331Z,53.17
2023-04-07T10:48:04.254Z,60.97
2023-04-07T10:50:31.373Z,57.13
2023-04-07T10:53:11.122Z,62.40
2023-04-07T10:55:47.939Z,60.97
2023-04-07T10:58:21.538Z,54.45
2023-04-07T11:00:57.069Z,60.40
2023-04-07T11:03:25.870Z,70.00
2023-04-07T11:05:52.551Z,57.05
2023-04-07T11:08:36.621Z,56.10
2023-04-07T11:11:09.118Z,57.15
2023-04-07T11:13:46.992Z,52.30
2023-04-07T11:16:15.751Z,54.15
2023-04-07T11:18:43.606Z,61.13
2023-04-07T11:21:10.805Z,66.55
2023-04-07T11:23:42.333Z,59.33
2023-04-07T11:26:11.565Z,52.42
2023-04-07T11:28:55.599Z,58.17
2023-04-07T11:31:27.252Z,50.67
2023-04-07T11:33:59.332Z,66.00
2023-04-07T11:36:46.308Z,56.63
2023-04-07T11:39:22.262Z,62.90
2023-04-07T11:41:50.608Z,57.85
2023-04-07T11:44:17.358Z,55.78
2023-04-07T11:46:57.632Z,61.33
2023-04-07T11:49:27.853Z,63.13
2023-04-07T11:52:09.071Z,57.67
2023-04-07T11:54:49.831Z,56.40
2023-04-07T11:57:28.338Z,53.08
2023-04-07T12:00:08.793Z,53.33
2023-04-07T12:02:35.943Z,54.13
2023-04-07T12:05:03.672Z,51.60
2023-04-07T12:07:31.210Z,63.42
2023-04-07T12:09:57.924Z,48.67
2023-04-07T12:12:33.109Z,47.97
2023-04-07T12:15:00.184Z,53.67
2023-04-07T12:17:27.347Z,54.00
2023-04-07T12:19:54.021Z,56.15
2023-04-07T12:22:20.712Z,54.55
2023-04-07T12:24:47.318Z,58.80
2023-04-07T12:27:13.834Z,61.40
2023-04-07T12:29:40.830Z,54.28
2023-04-07T12:32:07.727Z,58.17
2023-04-07T12:34:37.389Z,56.22
2023-04-07T12:37:03.959Z,57.72
2023-04-07T12:39:30.533Z,55.55
2023-04-07T12:41:58.148Z,53.63
2023-04-07T12:44:25.179Z,70.40
2023-04-07T12:46:52.125Z,63.60
2023-04-07T12:49:18.826Z,60.85
2023-04-07T12:51:50.721Z,56.85
2023-04-07T12:54:17.361Z,56.33
2023-04-07T12:56:46.225Z,61.42
2023-04-07T12:59:13.592Z,57.95
2023-04-07T13:01:41.073Z,57.63
2023-04-07T13:04:09.379Z,60.08
2023-04-07T13:06:36.156Z,50.88
2023-04-07T13:09:02.837Z,58.20
2023-04-07T13:11:29.474Z,51.92
2023-04-07T13:13:57.930Z,59.50
2023-04-07T13:16:25.951Z,68.10
2023-04-07T13:18:53.149Z,51.80
2023-04-07T13:21:43.877Z,58.28
2023-04-07T13:24:07.064Z,55.63
2023-04-07T13:26:34.806Z,54.10
2023-04-07T13:29:01.474Z,63.33
2023-04-07T13:31:28.493Z,51.95
2023-04-07T13:33:55.238Z,63.90
2023-04-07T13:36:23.428Z,62.05
2023-04-07T13:38:50.251Z,49.15
2023-04-07T13:41:16.881Z,55.38
2023-04-07T13:43:43.471Z,53.40
2023-04-07T13:46:27.397Z,54.75
2023-04-07T13:48:56.515Z,58.53
2023-04-07T13:51:23.191Z,59.42
2023-04-07T13:53:50.170Z,58.92
2023-04-07T13:56:16.975Z,61.10
2023-04-07T13:58:43.966Z,53.17
2023-04-07T14:01:11.395Z,53.60
2023-04-07T14:03:38.737Z,54.17
2023-04-07T14:06:05.638Z,57.97
2023-04-07T14:08:32.440Z,70.03
2023-04-07T14:11:01.543Z,54.08
2023-04-07T14:13:28.116Z,65.22
2023-04-07T14:15:54.683Z,62.40
2023-04-07T14:18:21.631Z,63.10
2023-04-07T14:20:48.222Z,61.13
2023-04-07T14:23:20.677Z,55.42
2023-04-07T14:25:53.120Z,54.88
2023-04-07T14:28:19.694Z,56.53
2023-04-07T14:30:47.166Z,233.95
2023-04-07T14:33:13.873Z,53.50
2023-04-07T14:35:41.954Z,44.90
2023-04-07T14:38:08.558Z,59.83
2023-04-07T14:40:35.630Z,156.60
2023-04-07T14:43:07.271Z,64.50
2023-04-07T14:45:35.663Z,74.45
2023-04-07T14:48:02.644Z,58.53
2023-04-07T14:50:32.636Z,59.67
2023-04-07T14:53:00.891Z,50.42
2023-04-07T14:55:27.633Z,54.40
2023-04-07T14:57:54.244Z,51.00
2023-04-07T15:00:21.422Z,64.72
2023-04-07T15:02:48.196Z,60.47
2023-04-07T15:05:15.001Z,107.55
2023-04-07T15:07:41.637Z,56.92
2023-04-07T15:10:08.700Z,86.72
2023-04-07T15:12:35.245Z,56.75
2023-04-07T15:15:02.011Z,57.72
2023-04-07T15:17:40.524Z,90.55
2023-04-07T15:20:13.619Z,98.07
2023-04-07T15:22:40.423Z,84.47
2023-04-07T15:25:07.832Z,65.78
2023-04-07T15:27:34.625Z,102.18
2023-04-07T15:30:01.117Z,137.70
2023-04-07T15:32:30.465Z,81.70
2023-04-07T15:34:57.023Z,55.75
2023-04-07T15:37:27.651Z,61.45
2023-04-07T15:39:54.189Z,52.03
2023-04-07T15:42:20.909Z,59.10
2023-04-07T15:44:47.633Z,51.15
2023-04-07T15:47:14.156Z,51.80
2023-04-07T15:49:42.237Z,82.72
2023-04-07T15:52:09.272Z,61.90
2023-04-07T15:54:35.831Z,67.72
2023-04-07T15:57:02.411Z,60.55
2023-04-07T15:59:30.804Z,60.53
2023-04-07T16:01:57.705Z,65.97
2023-04-07T16:04:24.630Z,50.08
2023-04-07T16:06:51.218Z,56.63
2023-04-07T16:09:17.848Z,53.85
2023-04-07T16:11:44.806Z,48.85
2023-04-07T16:14:11.473Z,45.78
2023-04-07T16:16:40.760Z,40.83
2023-04-07T16:19:07.743Z,60.17
2023-04-07T16:21:34.372Z,61.25
2023-04-07T16:24:01.095Z,50.13
2023-04-07T16:28:50.535Z,61.50
2023-04-07T16:31:17.174Z,69.78
2023-04-07T16:33:44.130Z,61.35
2023-04-07T16:36:10.770Z,64.07
2023-04-07T16:38:37.297Z,70.75
2023-04-07T16:41:06.646Z,85.00
2023-04-07T16:43:33.268Z,58.47
2023-04-07T16:46:00.524Z,62.40
2023-04-07T16:48:27.260Z,58.80
2023-04-07T16:50:53.920Z,56.58
2023-04-07T16:53:21.493Z,62.83
2023-04-07T16:55:48.401Z,71.20
2023-04-07T16:58:19.029Z,88.97
2023-04-07T17:00:46.355Z,77.00
2023-04-07T17:03:15.329Z,79.28
2023-04-07T17:05:44.508Z,80.43
2023-04-07T17:08:11.401Z,90.03
2023-04-07T17:10:38.010Z,93.85
2023-04-07T17:13:04.607Z,94.60
2023-04-07T17:15:31.183Z,80.28
2023-04-07T17:17:58.536Z,87.72
2023-04-07T17:20:26.322Z,71.70
2023-04-07T17:22:52.952Z,61.22
2023-04-07T17:25:19.672Z,61.97
2023-04-07T17:30:10.963Z,74.65
2023-04-07T17:32:37.753Z,82.13
2023-04-07T17:35:04.691Z,86.63
2023-04-07T17:37:31.846Z,71.13
2023-04-07T17:39:59.622Z,74.60
2023-04-07T17:42:26.233Z,100.63
2023-04-07T17:44:53.858Z,101.72
2023-04-07T17:47:20.536Z,96.40
2023-04-07T17:49:47.037Z,126.28
2023-04-07T17:52:14.224Z,104.63
2023-04-07T17:54:43.818Z,99.13
2023-04-07T17:57:11.506Z,105.97
2023-04-07T17:59:38.128Z,110.15
2023-04-07T18:02:08.947Z,109.18
2023-04-07T18:04:42.442Z,113.43
2023-04-07T18:07:09.507Z,93.35
2023-04-07T18:09:36.838Z,89.25
2023-04-07T18:12:03.934Z,104.10
2023-04-07T18:14:30.700Z,122.05
2023-04-07T18:16:57.328Z,101.20
2023-04-07T18:19:26.269Z,106.28
2023-04-07T18:21:53.437Z,95.97
2023-04-07T18:24:20.880Z,134.63
2023-04-07T18:26:47.942Z,125.80
2023-04-07T18:29:14.926Z,155.15
2023-04-07T18:31:42.290Z,151.75
2023-04-07T18:34:09.615Z,124.70
2023-04-07T18:36:37.696Z,110.35
2023-04-07T18:39:04.866Z,96.53
2023-04-07T18:41:31.744Z,104.55
2023-04-07T18:43:58.893Z,122.15
2023-04-07T18:46:29.089Z,130.02
2023-04-07T18:48:57.705Z,141.20
2023-04-07T18:51:24.364Z,143.48
2023-04-07T18:53:51.471Z,119.82
2023-04-07T18:56:19.197Z,167.25
2023-04-07T18:58:45.908Z,145.60
2023-04-07T19:01:15.682Z,161.05
2023-04-07T19:03:42.725Z,287.20
2023-04-07T19:06:09.568Z,347.65
2023-04-07T19:08:36.867Z,323.15
2023-04-07T19:11:04.636Z,233.18
2023-04-07T19:13:34.169Z,329.77
2023-04-07T19:16:01.817Z,191.07
2023-04-07T19:18:29.265Z,208.32
2023-04-07T19:20:56.246Z,230.43
2023-04-07T19:23:23.055Z,257.17
2023-04-07T19:25:49.833Z,239.27
2023-04-07T19:28:16.914Z,209.15
2023-04-07T19:30:48.969Z,163.68
2023-04-07T19:33:18.484Z,183.13
2023-04-07T19:35:45.445Z,190.20
2023-04-07T19:38:12.232Z,173.07
2023-04-07T19:40:40.687Z,177.07
2023-04-07T19:43:11.794Z,199.70
2023-04-07T19:45:38.600Z,197.30
2023-04-07T19:48:08.629Z,207.18
2023-04-07T19:50:42.439Z,212.57
2023-04-07T19:53:18.945Z,167.50
2023-04-07T19:55:54.715Z,160.45
2023-04-07T19:58:22.731Z,186.02
2023-04-07T20:00:53.482Z,173.27
2023-04-07T20:03:20.657Z,185.32
2023-04-07T20:05:47.630Z,170.75
2023-04-07T20:08:17.226Z,170.05
2023-04-07T20:10:45.080Z,133.07
2023-04-07T20:13:12.820Z,136.23
2023-04-07T20:15:40.403Z,139.68
2023-04-07T20:18:07.131Z,142.30
2023-04-07T20:20:33.929Z,137.85
2023-04-07T20:23:00.771Z,125.00
2023-04-07T20:25:27.324Z,112.18
2023-04-07T20:27:54.301Z,100.07
2023-04-07T20:30:20.988Z,95.82
2023-04-07T20:32:47.850Z,102.32
2023-04-07T20:35:14.565Z,109.65
2023-04-07T20:37:43.207Z,107.30
2023-04-07T20:40:10.228Z,102.35
2023-04-07T20:42:38.105Z,131.00
2023-04-07T20:45:06.425Z,105.53
2023-04-07T20:47:35.923Z,203.27
2023-04-07T20:50:03.360Z,232.60
2023-04-07T20:52:30.100Z,382.88
2023-04-07T20:54:57.014Z,126.15
2023-04-07T20:57:24.649Z,217.15
2023-04-07T20:59:51.497Z,108.10
2023-04-07T21:02:18.344Z,230.43
2023-04-07T21:04:48.146Z,116.00
2023-04-07T21:07:14.948Z,107.10
2023-04-07T21:09:41.790Z,105.28
2023-04-07T21:12:08.478Z,119.28
2023-04-07T21:14:35.916Z,108.63
2023-04-07T21:17:02.546Z,119.95
2023-04-07T21:19:29.072Z,115.97
2023-04-07T21:21:55.810Z,108.32
2023-04-07T21:24:25.490Z,110.40
2023-04-07T21:26:53.277Z,164.57
2023-04-07T21:29:20.762Z,158.73
2023-04-07T21:31:48.705Z,115.18
2023-04-07T21:34:15.483Z,112.05
2023-04-07T21:36:43.592Z,103.35
2023-04-07T21:39:10.160Z,112.18
2023-04-07T21:41:37.216Z,105.30
2023-04-07T21:44:03.871Z,97.68
2023-04-07T21:46:30.877Z,98.75
2023-04-07T21:48:58.433Z,101.20
2023-04-07T21:51:28.932Z,97.18
2023-04-07T21:53:55.541Z,105.93
2023-04-07T21:56:22.596Z,106.18
2023-04-07T21:58:49.479Z,111.95
2023-04-07T22:01:17.313Z,118.05
2023-04-07T22:03:45.636Z,115.93
2023-04-07T22:06:12.319Z,121.78
2023-04-07T22:08:40.001Z,115.05
2023-04-07T22:11:08.696Z,118.95
2023-04-07T22:13:35.851Z,111.30
2023-04-07T22:16:02.934Z,106.95
2023-04-07T22:18:29.503Z,98.75
2023-04-07T22:20:56.139Z,76.32
2023-04-07T22:23:22.896Z,82.78
2023-04-07T22:25:50.671Z,82.68
2023-04-07T22:28:17.326Z,83.72
2023-04-07T22:30:43.848Z,72.78
2023-04-07T22:33:10.697Z,80.25
2023-04-07T22:35:38.314Z,76.93
2023-04-07T22:38:07.791Z,74.40
2023-04-07T22:40:34.317Z,80.88
2023-04-07T22:43:02.169Z,78.28
2023-04-07T22:45:29.251Z,76.25
2023-04-07T22:47:56.208Z,79.57
2023-04-07T22:50:22.950Z,75.15
2023-04-07T22:52:49.623Z,75.10
2023-04-07T22:55:16.365Z,75.03
2023-04-07T22:57:43.219Z,81.00
2023-04-07T23:00:10.110Z,80.32
2023-04-07T23:02:36.843Z,74.88
2023-04-07T23:05:06.655Z,78.43
2023-04-07T23:07:34.178Z,83.68
2023-04-07T23:10:00.876Z,69.75
2023-04-07T23:12:27.618Z,81.90
2023-04-07T23:14:54.205Z,87.88
2023-04-07T23:17:21.499Z,81.90
2023-04-07T23:19:48.209Z,87.93
2023-04-07T23:22:14.842Z,91.07
2023-04-07T23:24:41.658Z,91.78
2023-04-07T23:27:08.329Z,98.68
2023-04-07T23:29:34.865Z,170.48
2023-04-07T23:32:01.712Z,92.97
2023-04-07T23:34:28.410Z,101.88
2023-04-07T23:36:55.146Z,105.85
2023-04-07T23:39:21.714Z,105.32
2023-04-07T23:41:48.539Z,96.72
2023-04-07T23:44:15.583Z,108.40
2023-04-07T23:46:42.121Z,98.70
2023-04-07T23:49:08.727Z,98.75
2023-04-07T23:51:35.644Z,98.68
2023-04-07T23:54:02.235Z,104.30
2023-04-07T23:56:29.005Z,89.28
2023-04-07T23:58:55.844Z,93.40
